Time;durP1;ratioP1;P1;durP2;ratioP2;P2;SDS_P1;SDS_P2;PMS_P1;PMS_P2;Temp;Humidity;BMP_temperature;BMP_pressure;BME280_temperature;BME280_humidity;BME280_pressure;Samples;Min_cycle;Max_cycle;Signal;HPM_P1;HPM_P2
2022/12/18 00:01:25;;;;;;;;;76.00;64.00;;;;;;;;5059340;28;8786;-83
2022/12/18 00:03:53;;;;;;;;;75.25;61.25;;;;;;;;5061643;28;8828;-83
2022/12/18 00:06:21;;;;;;;;;65.50;55.00;;;;;;;;5056407;28;8832;-83
2022/12/18 00:08:49;;;;;;;;;84.25;66.75;;;;;;;;5068998;28;8836;-83
2022/12/18 00:11:23;;;;;;;;;77.00;62.75;;;;;;;;5065331;28;8899;-82
2022/12/18 00:13:51;;;;;;;;;60.50;53.25;;;;;;;;5065176;28;8856;-82
2022/12/18 00:16:20;;;;;;;;;50.00;48.00;;;;;;;;5071555;28;8978;-83
2022/12/18 00:18:48;;;;;;;;;69.00;59.00;;;;;;;;5073945;28;8939;-82
2022/12/18 00:21:19;;;;;;;;;65.00;56.25;;;;;;;;5065879;28;8860;-80
2022/12/18 00:23:47;;;;;;;;;67.25;58.25;;;;;;;;5079003;28;8887;-81
2022/12/18 00:26:16;;;;;;;;;68.50;58.25;;;;;;;;5069282;28;8836;-82
2022/12/18 00:28:45;;;;;;;;;67.25;58.00;;;;;;;;5065528;28;8832;-81
2022/12/18 00:31:14;;;;;;;;;73.50;61.75;;;;;;;;5068425;28;8830;-82
2022/12/18 00:33:42;;;;;;;;;64.50;54.25;;;;;;;;5069600;28;9667;-81
2022/12/18 00:36:12;;;;;;;;;75.00;61.00;;;;;;;;5065501;28;8885;-81
2022/12/18 00:38:39;;;;;;;;;66.25;57.25;;;;;;;;5072862;28;8851;-83
2022/12/18 00:41:08;;;;;;;;;69.25;58.25;;;;;;;;5072829;28;8951;-82
2022/12/18 00:43:34;;;;;;;;;72.50;60.00;;;;;;;;5069248;28;8842;-83
2022/12/18 00:46:03;;;;;;;;;74.25;62.00;;;;;;;;5060871;28;8863;-83
2022/12/18 00:48:31;;;;;;;;;68.00;55.25;;;;;;;;5068337;28;8865;-83
2022/12/18 00:50:59;;;;;;;;;71.00;59.50;;;;;;;;5054408;28;8851;-83
2022/12/18 00:53:26;;;;;;;;;68.75;56.25;;;;;;;;5050708;28;8857;-83
2022/12/18 00:55:53;;;;;;;;;62.25;54.00;;;;;;;;5054927;28;8849;-83
2022/12/18 00:58:21;;;;;;;;;75.75;59.25;;;;;;;;5056874;28;8883;-83
2022/12/18 01:00:48;;;;;;;;;61.00;52.75;;;;;;;;5074649;28;8768;-84
2022/12/18 01:03:17;;;;;;;;;69.00;58.00;;;;;;;;5072757;28;9007;-83
2022/12/18 01:05:45;;;;;;;;;66.25;55.75;;;;;;;;5082310;28;8963;-85
2022/12/18 01:08:13;;;;;;;;;67.00;57.00;;;;;;;;5067138;28;8854;-83
2022/12/18 01:10:42;;;;;;;;;68.75;58.00;;;;;;;;5065892;28;8837;-82
2022/12/18 01:13:10;;;;;;;;;74.50;61.00;;;;;;;;5076822;28;8852;-83
2022/12/18 01:15:39;;;;;;;;;64.25;55.50;;;;;;;;5077368;28;8842;-83
2022/12/18 01:18:07;;;;;;;;;68.75;58.25;;;;;;;;5059412;28;8858;-83
2022/12/18 01:20:39;;;;;;;;;69.50;59.25;;;;;;;;5083442;28;8944;-82
2022/12/18 01:23:07;;;;;;;;;64.50;55.25;;;;;;;;5083734;28;8966;-83
2022/12/18 01:25:36;;;;;;;;;66.00;55.00;;;;;;;;5064098;28;8870;-82
2022/12/18 01:28:04;;;;;;;;;51.50;47.75;;;;;;;;5060013;28;8869;-83
2022/12/18 01:30:31;;;;;;;;;74.50;61.75;;;;;;;;5069407;28;8913;-83
2022/12/18 01:32:59;;;;;;;;;69.00;58.50;;;;;;;;5072994;28;8952;-82
2022/12/18 01:35:26;;;;;;;;;67.50;57.50;;;;;;;;5073204;28;8848;-80
2022/12/18 01:37:57;;;;;;;;;72.75;60.75;;;;;;;;5071412;28;8846;-82
2022/12/18 01:40:24;;;;;;;;;67.75;58.75;;;;;;;;5056686;28;8846;-82
2022/12/18 01:42:53;;;;;;;;;76.75;62.00;;;;;;;;5072357;28;9602;-82
2022/12/18 01:45:26;;;;;;;;;58.75;49.25;;;;;;;;5077904;28;8854;-82
2022/12/18 01:47:55;;;;;;;;;70.75;60.00;;;;;;;;5073794;28;8818;-80
2022/12/18 01:50:25;;;;;;;;;67.25;58.25;;;;;;;;5071780;28;8865;-81
2022/12/18 01:52:58;;;;;;;;;61.75;52.75;;;;;;;;5069446;28;8880;-82
2022/12/18 01:55:27;;;;;;;;;62.25;54.50;;;;;;;;5056740;28;9668;-81
2022/12/18 01:57:59;;;;;;;;;75.25;61.00;;;;;;;;5077027;28;8846;-80
2022/12/18 02:00:28;;;;;;;;;63.75;55.00;;;;;;;;5070520;28;8804;-81
2022/12/18 02:02:57;;;;;;;;;70.00;58.25;;;;;;;;5068720;28;8848;-80
2022/12/18 02:05:44;;;;;;;;;56.50;51.00;;;;;;;;5037225;28;8864;-81
2022/12/18 02:08:19;;;;;;;;;68.00;55.50;;;;;;;;5062282;28;8872;-81
2022/12/18 02:10:54;;;;;;;;;59.25;51.50;;;;;;;;5067834;28;8848;-82
2022/12/18 02:13:24;;;;;;;;;62.25;53.00;;;;;;;;5068624;28;8863;-81
2022/12/18 02:15:58;;;;;;;;;68.75;57.50;;;;;;;;5054789;28;8868;-82
2022/12/18 02:18:29;;;;;;;;;65.25;55.50;;;;;;;;5067849;28;8846;-81
2022/12/18 02:21:01;;;;;;;;;63.25;55.25;;;;;;;;5069106;28;8866;-81
2022/12/18 02:23:43;;;;;;;;;66.75;56.50;;;;;;;;5069116;28;8857;-83
2022/12/18 02:26:18;;;;;;;;;68.00;56.00;;;;;;;;5047087;28;8834;-82
2022/12/18 02:28:48;;;;;;;;;59.25;52.50;;;;;;;;5087157;28;8877;-83
2022/12/18 02:31:19;;;;;;;;;57.25;51.75;;;;;;;;5019394;28;8806;-84
2022/12/18 02:33:47;;;;;;;;;60.25;52.00;;;;;;;;5067481;28;8850;-84
2022/12/18 02:36:15;;;;;;;;;57.00;51.50;;;;;;;;5058040;28;8862;-83
2022/12/18 02:38:44;;;;;;;;;66.25;55.25;;;;;;;;5067387;28;8860;-84
2022/12/18 02:41:12;;;;;;;;;61.25;53.50;;;;;;;;5067029;28;8861;-84
2022/12/18 02:43:42;;;;;;;;;65.50;53.75;;;;;;;;5072739;28;8838;-85
2022/12/18 02:46:32;;;;;;;;;42.75;39.75;;;;;;;;5058391;28;8834;-84
2022/12/18 02:49:07;;;;;;;;;59.75;53.00;;;;;;;;5064915;28;8864;-84
2022/12/18 02:51:44;;;;;;;;;68.75;57.75;;;;;;;;5068670;28;8876;-84
2022/12/18 02:54:19;;;;;;;;;60.25;51.25;;;;;;;;5065932;28;8865;-84
2022/12/18 02:56:49;;;;;;;;;61.00;52.25;;;;;;;;5067895;28;9732;-84
2022/12/18 02:59:23;;;;;;;;;62.00;54.00;;;;;;;;5071009;28;8824;-84
2022/12/18 03:01:54;;;;;;;;;68.75;58.50;;;;;;;;5069975;28;8821;-83
2022/12/18 03:04:26;;;;;;;;;69.75;57.75;;;;;;;;5059516;28;8849;-83
2022/12/18 03:06:57;;;;;;;;;68.75;57.50;;;;;;;;5072360;28;8865;-83
2022/12/18 03:09:31;;;;;;;;;54.75;49.75;;;;;;;;5067079;28;8854;-83
2022/12/18 03:12:24;;;;;;;;;65.00;53.75;;;;;;;;5086091;28;8869;-83
2022/12/18 03:14:57;;;;;;;;;65.00;55.25;;;;;;;;5066249;28;8961;-82
2022/12/18 03:17:28;;;;;;;;;70.00;59.25;;;;;;;;5074780;28;8861;-83
2022/12/18 03:20:00;;;;;;;;;63.50;53.50;;;;;;;;5055743;28;8884;-83
2022/12/18 03:22:29;;;;;;;;;68.50;57.75;;;;;;;;5069952;28;8896;-83
2022/12/18 03:24:58;;;;;;;;;60.25;52.50;;;;;;;;5072643;28;8830;-83
2022/12/18 03:27:27;;;;;;;;;67.25;56.50;;;;;;;;5068828;28;8876;-83
2022/12/18 03:30:07;;;;;;;;;67.25;56.75;;;;;;;;5071690;28;8984;-83
2022/12/18 03:32:37;;;;;;;;;62.75;52.50;;;;;;;;5050127;28;8902;-84
2022/12/18 03:35:07;;;;;;;;;56.75;51.00;;;;;;;;5035548;28;8868;-84
2022/12/18 03:37:35;;;;;;;;;69.75;54.50;;;;;;;;5024135;28;8868;-83
2022/12/18 03:40:03;;;;;;;;;56.25;51.00;;;;;;;;5051347;28;8882;-84
2022/12/18 03:42:38;;;;;;;;;54.00;49.50;;;;;;;;5042313;28;8834;-84
2022/12/18 03:45:12;;;;;;;;;62.75;53.75;;;;;;;;5052877;28;8860;-83
2022/12/18 03:47:43;;;;;;;;;70.00;56.25;;;;;;;;5052392;28;8890;-83
2022/12/18 03:50:14;;;;;;;;;59.50;52.00;;;;;;;;5035782;28;8849;-85
2022/12/18 03:52:49;;;;;;;;;62.75;54.00;;;;;;;;5050152;28;8877;-84
2022/12/18 03:55:18;;;;;;;;;65.50;56.50;;;;;;;;5048528;28;9697;-85
2022/12/18 03:57:46;;;;;;;;;57.50;51.25;;;;;;;;5040962;28;8983;-84
2022/12/18 04:00:20;;;;;;;;;63.50;54.75;;;;;;;;5051413;28;9010;-84
2022/12/18 04:02:50;;;;;;;;;65.50;55.00;;;;;;;;5064187;28;8865;-83
2022/12/18 04:05:19;;;;;;;;;61.50;53.00;;;;;;;;5069892;28;8810;-83
2022/12/18 04:07:47;;;;;;;;;56.25;48.25;;;;;;;;5074860;28;8821;-83
2022/12/18 04:10:16;;;;;;;;;70.50;60.00;;;;;;;;5076102;28;8875;-85
2022/12/18 04:12:43;;;;;;;;;62.50;53.25;;;;;;;;5076107;28;8842;-83
2022/12/18 04:15:12;;;;;;;;;49.00;45.75;;;;;;;;5070807;28;8830;-83
2022/12/18 04:17:48;;;;;;;;;61.25;51.00;;;;;;;;5069034;28;8853;-82
2022/12/18 04:20:15;;;;;;;;;57.25;51.00;;;;;;;;5053872;28;9051;-82
2022/12/18 04:22:43;;;;;;;;;61.50;53.00;;;;;;;;5063509;28;8817;-83
2022/12/18 04:25:13;;;;;;;;;67.00;58.00;;;;;;;;5048298;28;8939;-83
2022/12/18 04:27:41;;;;;;;;;70.00;58.00;;;;;;;;5046383;28;8837;-83
2022/12/18 04:30:09;;;;;;;;;70.50;56.00;;;;;;;;5051352;28;8880;-84
2022/12/18 04:32:37;;;;;;;;;72.25;61.75;;;;;;;;5061767;28;8837;-83
2022/12/18 04:35:10;;;;;;;;;60.50;54.00;;;;;;;;5064045;28;8881;-85
2022/12/18 04:37:38;;;;;;;;;68.50;57.75;;;;;;;;5064973;28;8834;-84
2022/12/18 04:40:07;;;;;;;;;74.00;60.75;;;;;;;;5063248;28;8980;-83
2022/12/18 04:42:35;;;;;;;;;58.50;52.00;;;;;;;;5035143;28;8860;-84
2022/12/18 04:45:02;;;;;;;;;66.50;54.50;;;;;;;;5055704;28;8867;-84
2022/12/18 04:47:30;;;;;;;;;54.25;48.75;;;;;;;;5054422;28;8952;-84
2022/12/18 04:49:57;;;;;;;;;70.00;58.00;;;;;;;;5064993;28;8876;-85
2022/12/18 04:52:26;;;;;;;;;64.75;56.00;;;;;;;;5057686;28;9026;-84
2022/12/18 04:54:54;;;;;;;;;67.25;54.25;;;;;;;;5065617;28;8881;-84
2022/12/18 04:57:22;;;;;;;;;67.25;55.75;;;;;;;;5053512;28;8887;-84
2022/12/18 04:59:50;;;;;;;;;76.25;62.75;;;;;;;;5054149;28;8834;-84
2022/12/18 05:02:17;;;;;;;;;69.00;58.75;;;;;;;;5065148;28;8818;-84
2022/12/18 05:04:45;;;;;;;;;70.00;58.50;;;;;;;;5053885;28;8882;-82
2022/12/18 05:07:13;;;;;;;;;69.50;59.00;;;;;;;;5050018;28;9592;-83
2022/12/18 05:09:42;;;;;;;;;65.75;56.25;;;;;;;;5051342;28;8865;-85
2022/12/18 05:12:10;;;;;;;;;52.75;48.00;;;;;;;;5067259;28;8862;-85
2022/12/18 05:14:37;;;;;;;;;72.75;58.50;;;;;;;;5059934;28;8854;-85
2022/12/18 05:17:05;;;;;;;;;66.00;56.25;;;;;;;;5040118;28;8860;-85
2022/12/18 05:19:32;;;;;;;;;71.25;61.00;;;;;;;;5063234;28;8890;-85
2022/12/18 05:22:01;;;;;;;;;70.75;60.00;;;;;;;;5048022;28;8868;-84
2022/12/18 05:24:28;;;;;;;;;57.00;51.75;;;;;;;;5063278;28;8857;-84
2022/12/18 05:26:57;;;;;;;;;65.75;56.50;;;;;;;;5064694;28;9615;-85
2022/12/18 05:29:25;;;;;;;;;65.75;54.50;;;;;;;;5063136;28;8892;-84
2022/12/18 05:31:52;;;;;;;;;70.50;60.00;;;;;;;;5035455;28;8806;-85
2022/12/18 05:34:20;;;;;;;;;61.75;53.50;;;;;;;;5061031;28;8838;-85
2022/12/18 05:36:47;;;;;;;;;73.00;61.75;;;;;;;;5064150;28;8852;-85
2022/12/18 05:39:14;;;;;;;;;68.50;59.25;;;;;;;;5046539;28;8857;-86
2022/12/18 05:41:42;;;;;;;;;67.25;57.25;;;;;;;;5062869;28;8992;-84
2022/12/18 05:44:11;;;;;;;;;52.75;49.00;;;;;;;;5063130;28;8854;-83
2022/12/18 05:46:42;;;;;;;;;69.75;58.50;;;;;;;;5049573;28;8834;-84
2022/12/18 05:49:09;;;;;;;;;54.50;49.00;;;;;;;;5068087;28;8980;-86
2022/12/18 05:51:39;;;;;;;;;73.00;58.75;;;;;;;;5053127;28;8861;-84
2022/12/18 05:54:07;;;;;;;;;67.50;57.00;;;;;;;;5070229;28;8842;-85
2022/12/18 05:56:34;;;;;;;;;67.00;57.00;;;;;;;;5055307;28;8898;-85
2022/12/18 05:59:02;;;;;;;;;73.00;62.00;;;;;;;;5079955;28;8849;-83
2022/12/18 06:01:31;;;;;;;;;71.50;59.25;;;;;;;;5072864;28;8786;-83
2022/12/18 06:03:59;;;;;;;;;70.25;60.50;;;;;;;;5068400;28;8860;-83
2022/12/18 06:06:28;;;;;;;;;70.50;57.00;;;;;;;;5065948;28;8872;-83
2022/12/18 06:08:57;;;;;;;;;67.75;55.50;;;;;;;;5072573;28;8834;-83
2022/12/18 06:11:27;;;;;;;;;70.00;54.50;;;;;;;;5065567;28;8841;-84
2022/12/18 06:13:56;;;;;;;;;62.25;54.00;;;;;;;;5069684;28;8867;-84
2022/12/18 06:16:24;;;;;;;;;67.75;58.00;;;;;;;;5054011;28;8841;-85
2022/12/18 06:18:57;;;;;;;;;56.25;49.25;;;;;;;;5068306;28;8850;-85
2022/12/18 06:21:24;;;;;;;;;65.25;56.25;;;;;;;;5052128;28;8852;-85
2022/12/18 06:23:52;;;;;;;;;52.00;47.25;;;;;;;;5069021;28;8826;-84
2022/12/18 06:26:21;;;;;;;;;67.75;57.75;;;;;;;;5053259;28;8830;-86
2022/12/18 06:28:48;;;;;;;;;69.00;56.50;;;;;;;;5069329;28;8932;-83
2022/12/18 06:31:16;;;;;;;;;71.75;59.25;;;;;;;;5068260;28;8789;-85
2022/12/18 06:33:45;;;;;;;;;57.75;49.75;;;;;;;;5051498;28;8838;-85
2022/12/18 06:36:16;;;;;;;;;54.75;50.25;;;;;;;;5068315;28;8845;-86
2022/12/18 06:38:45;;;;;;;;;64.50;55.50;;;;;;;;5050544;28;8856;-85
2022/12/18 06:41:15;;;;;;;;;71.75;59.75;;;;;;;;5034991;28;8898;-85
2022/12/18 06:43:43;;;;;;;;;61.75;51.75;;;;;;;;5067664;28;8855;-85
2022/12/18 06:46:15;;;;;;;;;67.00;58.00;;;;;;;;5064571;28;8911;-78
2022/12/18 06:48:43;;;;;;;;;53.00;47.50;;;;;;;;5071847;28;9461;-75
2022/12/18 06:51:11;;;;;;;;;64.00;52.00;;;;;;;;5012395;28;8840;-73
2022/12/18 06:53:40;;;;;;;;;63.75;52.00;;;;;;;;5062914;28;8950;-73
2022/12/18 06:56:13;;;;;;;;;65.50;53.50;;;;;;;;5061265;28;8883;-74
2022/12/18 06:58:40;;;;;;;;;63.25;54.00;;;;;;;;5048226;28;8878;-73
2022/12/18 07:01:10;;;;;;;;;64.75;54.75;;;;;;;;5058618;28;8783;-74
2022/12/18 07:03:38;;;;;;;;;62.75;52.00;;;;;;;;5063212;28;8842;-74
2022/12/18 07:06:06;;;;;;;;;65.50;56.75;;;;;;;;5062001;28;9695;-73
2022/12/18 07:08:34;;;;;;;;;60.50;52.75;;;;;;;;5062954;28;8871;-73
2022/12/18 07:11:08;;;;;;;;;60.25;53.00;;;;;;;;5046540;28;8977;-74
2022/12/18 07:13:36;;;;;;;;;60.50;49.75;;;;;;;;5059678;28;9647;-75
2022/12/18 07:16:09;;;;;;;;;72.25;60.25;;;;;;;;5061940;28;8872;-76
2022/12/18 07:18:39;;;;;;;;;72.00;57.25;;;;;;;;5030131;28;8938;-75
2022/12/18 07:21:08;;;;;;;;;72.50;61.75;;;;;;;;5061701;28;9561;-75
2022/12/18 07:23:38;;;;;;;;;65.75;55.50;;;;;;;;5063472;28;8860;-75
2022/12/18 07:26:09;;;;;;;;;70.25;59.25;;;;;;;;5063484;28;8865;-72
2022/12/18 07:28:40;;;;;;;;;72.75;60.50;;;;;;;;5063353;28;8861;-74
2022/12/18 07:31:09;;;;;;;;;84.00;69.00;;;;;;;;5060139;28;9210;-75
2022/12/18 07:33:37;;;;;;;;;83.50;68.75;;;;;;;;5062457;28;8845;-76
2022/12/18 07:36:07;;;;;;;;;84.00;66.50;;;;;;;;5062783;28;8892;-74
2022/12/18 07:38:35;;;;;;;;;92.00;71.75;;;;;;;;5062824;28;8838;-74
2022/12/18 07:41:04;;;;;;;;;90.25;71.50;;;;;;;;5062385;28;8871;-75
2022/12/18 07:43:34;;;;;;;;;80.00;65.00;;;;;;;;5063098;28;8840;-74
2022/12/18 07:46:02;;;;;;;;;84.50;67.25;;;;;;;;5060986;28;8857;-74
2022/12/18 07:48:30;;;;;;;;;86.25;69.00;;;;;;;;5061892;28;8850;-76
2022/12/18 07:51:01;;;;;;;;;81.50;64.25;;;;;;;;5060456;28;8866;-75
2022/12/18 07:53:28;;;;;;;;;83.00;67.75;;;;;;;;5048034;28;8856;-75
2022/12/18 07:55:57;;;;;;;;;87.75;70.75;;;;;;;;5049439;28;8854;-72
2022/12/18 07:58:25;;;;;;;;;75.75;64.50;;;;;;;;5044489;28;8846;-71
2022/12/18 08:01:02;;;;;;;;;83.00;69.50;;;;;;;;5069222;28;8818;-74
2022/12/18 08:03:30;;;;;;;;;74.00;63.75;;;;;;;;5059252;28;8860;-74
2022/12/18 08:06:01;;;;;;;;;72.25;60.00;;;;;;;;5061646;28;8846;-75
2022/12/18 08:08:29;;;;;;;;;72.25;59.75;;;;;;;;5060919;28;8869;-75
2022/12/18 08:10:57;;;;;;;;;73.50;62.75;;;;;;;;5044388;28;8879;-74
2022/12/18 08:13:25;;;;;;;;;84.50;70.50;;;;;;;;5043252;28;8826;-75
2022/12/18 08:16:02;;;;;;;;;82.00;68.50;;;;;;;;5061505;28;8844;-73
2022/12/18 08:18:30;;;;;;;;;74.25;63.50;;;;;;;;5058099;28;9702;-75
2022/12/18 08:20:58;;;;;;;;;77.75;63.25;;;;;;;;5045877;28;8861;-75
2022/12/18 08:23:25;;;;;;;;;73.25;59.00;;;;;;;;5028583;28;8991;-75
2022/12/18 08:25:53;;;;;;;;;75.25;64.50;;;;;;;;5062835;28;8838;-74
2022/12/18 08:28:20;;;;;;;;;90.00;71.00;;;;;;;;5039706;28;8880;-72
2022/12/18 08:30:48;;;;;;;;;92.25;73.75;;;;;;;;5056528;28;8836;-71
2022/12/18 08:33:16;;;;;;;;;95.25;77.50;;;;;;;;5055503;28;8872;-72
2022/12/18 08:35:44;;;;;;;;;91.25;74.75;;;;;;;;5051735;28;8867;-74
2022/12/18 08:38:29;;;;;;;;;94.50;75.75;;;;;;;;5057886;28;9360;-75
2022/12/18 08:41:04;;;;;;;;;80.25;67.75;;;;;;;;5040361;28;8842;-76
2022/12/18 08:46:17;;;;;;;;;71.25;59.50;;;;;;;;5055095;28;8838;-70
2022/12/18 08:48:46;;;;;;;;;82.50;67.50;;;;;;;;5057691;28;9707;-72
2022/12/18 08:51:14;;;;;;;;;83.25;68.25;;;;;;;;5059888;28;8833;-74
2022/12/18 08:53:41;;;;;;;;;79.50;64.50;;;;;;;;5059012;28;8842;-76
2022/12/18 08:56:09;;;;;;;;;83.25;68.50;;;;;;;;5059365;28;8824;-74
2022/12/18 08:58:37;;;;;;;;;78.25;63.00;;;;;;;;5058314;28;8842;-73
2022/12/18 09:01:06;;;;;;;;;78.50;66.00;;;;;;;;5042426;28;8794;-74
2022/12/18 09:03:34;;;;;;;;;79.50;63.75;;;;;;;;5059109;28;8840;-72
2022/12/18 09:06:04;;;;;;;;;101.75;78.75;;;;;;;;5057140;28;8968;-73
2022/12/18 09:08:36;;;;;;;;;90.25;72.00;;;;;;;;5058036;28;8846;-72
2022/12/18 09:11:03;;;;;;;;;101.50;81.25;;;;;;;;5054894;28;8963;-72
2022/12/18 09:13:31;;;;;;;;;86.00;68.25;;;;;;;;5055830;28;9026;-73
2022/12/18 09:15:58;;;;;;;;;82.25;68.50;;;;;;;;5040075;28;8853;-73
2022/12/18 09:18:26;;;;;;;;;75.50;63.50;;;;;;;;5060413;28;8872;-72
2022/12/18 09:20:53;;;;;;;;;80.00;65.00;;;;;;;;5056602;28;8864;-75
2022/12/18 09:23:22;;;;;;;;;71.75;60.25;;;;;;;;5046006;28;8852;-74
2022/12/18 09:25:50;;;;;;;;;64.50;55.00;;;;;;;;5063137;28;8850;-71
2022/12/18 09:28:29;;;;;;;;;75.25;63.25;;;;;;;;5048800;28;8834;-72
2022/12/18 09:31:07;;;;;;;;;53.50;49.25;;;;;;;;5061528;28;8813;-73
2022/12/18 09:33:35;;;;;;;;;73.25;60.50;;;;;;;;5048408;28;8868;-73
2022/12/18 09:36:04;;;;;;;;;70.50;58.00;;;;;;;;5062125;28;9687;-73
2022/12/18 09:38:33;;;;;;;;;72.50;60.75;;;;;;;;5047615;28;8954;-72
2022/12/18 09:41:04;;;;;;;;;59.00;50.00;;;;;;;;5060777;28;8853;-72
2022/12/18 09:43:39;;;;;;;;;71.25;60.50;;;;;;;;5064952;28;8995;-72
2022/12/18 09:46:10;;;;;;;;;70.75;57.75;;;;;;;;5062675;28;8826;-72
2022/12/18 09:48:41;;;;;;;;;55.00;48.75;;;;;;;;5047763;28;8826;-73
2022/12/18 09:51:15;;;;;;;;;50.75;45.50;;;;;;;;5049466;28;8828;-72
2022/12/18 09:53:48;;;;;;;;;59.25;53.00;;;;;;;;5060900;28;8887;-72
2022/12/18 09:56:22;;;;;;;;;68.25;55.00;;;;;;;;5061684;28;8884;-72
2022/12/18 09:58:59;;;;;;;;;65.75;55.50;;;;;;;;5048917;28;9614;-73
2022/12/18 10:01:28;;;;;;;;;63.75;55.25;;;;;;;;5062252;28;8784;-72
2022/12/18 10:03:56;;;;;;;;;45.75;44.50;;;;;;;;5063992;28;8960;-73
2022/12/18 10:06:27;;;;;;;;;52.00;47.00;;;;;;;;5063442;28;8862;-72
2022/12/18 10:09:02;;;;;;;;;60.75;52.00;;;;;;;;5060501;28;8862;-73
2022/12/18 10:11:40;;;;;;;;;56.00;48.50;;;;;;;;5061045;28;8838;-73
2022/12/18 10:14:14;;;;;;;;;53.00;48.25;;;;;;;;5047351;28;8813;-73
2022/12/18 10:16:49;;;;;;;;;54.25;50.50;;;;;;;;5062705;28;8854;-72
2022/12/18 10:19:30;;;;;;;;;48.50;46.25;;;;;;;;5046067;28;8878;-73
2022/12/18 10:22:03;;;;;;;;;48.25;46.50;;;;;;;;5060086;28;8850;-72
2022/12/18 10:24:43;;;;;;;;;56.50;50.25;;;;;;;;5056525;28;8834;-72
2022/12/18 10:27:15;;;;;;;;;58.50;51.75;;;;;;;;5058701;28;8846;-72
2022/12/18 10:29:43;;;;;;;;;65.75;53.50;;;;;;;;5058138;28;8873;-73
2022/12/18 10:32:16;;;;;;;;;48.75;43.75;;;;;;;;5058642;28;8768;-74
2022/12/18 10:34:45;;;;;;;;;58.25;48.50;;;;;;;;5050001;28;8852;-73
2022/12/18 10:37:18;;;;;;;;;55.25;45.75;;;;;;;;5056578;28;9690;-73
2022/12/18 10:39:48;;;;;;;;;41.50;41.50;;;;;;;;5047329;28;8833;-73
2022/12/18 10:42:19;;;;;;;;;45.50;44.75;;;;;;;;5058300;28;8856;-71
2022/12/18 10:44:47;;;;;;;;;49.50;45.25;;;;;;;;5060360;28;8834;-73
2022/12/18 10:47:18;;;;;;;;;49.25;46.50;;;;;;;;5057704;28;9647;-73
2022/12/18 10:49:51;;;;;;;;;49.00;46.25;;;;;;;;5060958;28;9041;-74
2022/12/18 10:52:20;;;;;;;;;51.50;43.25;;;;;;;;5059348;28;8833;-71
2022/12/18 10:54:52;;;;;;;;;40.50;40.50;;;;;;;;5048863;28;8833;-72
2022/12/18 10:57:32;;;;;;;;;45.75;42.75;;;;;;;;5062546;28;8896;-71
2022/12/18 11:00:05;;;;;;;;;51.25;46.00;;;;;;;;5042925;28;8838;-73
2022/12/18 11:02:38;;;;;;;;;46.25;44.00;;;;;;;;5041633;28;8919;-73
2022/12/18 11:05:25;;;;;;;;;49.75;46.50;;;;;;;;5043050;28;8853;-74
2022/12/18 11:07:53;;;;;;;;;39.25;38.25;;;;;;;;5044879;28;8841;-74
2022/12/18 11:10:25;;;;;;;;;53.00;45.75;;;;;;;;5048307;28;8993;-73
2022/12/18 11:12:54;;;;;;;;;48.75;42.50;;;;;;;;5044397;28;8800;-76
2022/12/18 11:15:22;;;;;;;;;57.50;50.00;;;;;;;;5043961;28;8938;-72
2022/12/18 11:17:52;;;;;;;;;58.25;51.50;;;;;;;;5041723;28;9688;-73
2022/12/18 11:20:30;;;;;;;;;41.00;41.00;;;;;;;;5047511;28;9642;-71
2022/12/18 11:22:59;;;;;;;;;52.50;47.50;;;;;;;;5018446;28;8828;-74
2022/12/18 11:25:30;;;;;;;;;45.00;42.50;;;;;;;;5046218;28;8888;-72
2022/12/18 11:28:00;;;;;;;;;49.50;47.25;;;;;;;;5041858;28;8840;-72
2022/12/18 11:30:30;;;;;;;;;43.25;43.25;;;;;;;;5044566;28;8893;-74
2022/12/18 11:33:03;;;;;;;;;43.00;42.75;;;;;;;;5021759;28;8913;-74
2022/12/18 11:35:38;;;;;;;;;41.25;41.25;;;;;;;;5022426;28;8852;-73
2022/12/18 11:38:12;;;;;;;;;49.00;41.75;;;;;;;;5038447;28;9702;-73
2022/12/18 11:40:44;;;;;;;;;43.50;43.50;;;;;;;;5039388;28;8856;-75
2022/12/18 11:43:16;;;;;;;;;44.00;42.25;;;;;;;;5037088;28;8835;-75
2022/12/18 11:45:49;;;;;;;;;53.25;48.25;;;;;;;;5039031;28;8970;-78
2022/12/18 11:48:21;;;;;;;;;44.00;43.25;;;;;;;;5025855;28;8907;-73
2022/12/18 11:50:51;;;;;;;;;50.25;44.75;;;;;;;;5041031;28;8824;-72
2022/12/18 11:53:20;;;;;;;;;37.25;37.25;;;;;;;;5025623;28;8851;-74
2022/12/18 11:56:04;;;;;;;;;35.00;35.00;;;;;;;;5041309;28;8836;-74
2022/12/18 11:58:45;;;;;;;;;47.75;43.75;;;;;;;;5042601;28;8847;-76
2022/12/18 12:01:19;;;;;;;;;51.33;47.00;;;;;;;;5035211;28;8776;-72
2022/12/18 12:04:32;;;;;;;;;46.67;40.00;;;;;;;;5045519;28;8838;-76
2022/12/18 12:07:08;;;;;;;;;49.67;42.00;;;;;;;;4983013;28;8883;-78
2022/12/18 12:09:42;;;;;;;;;57.00;42.00;;;;;;;;5044460;28;8870;-72
2022/12/18 12:12:25;;;;;;;;;50.00;40.00;;;;;;;;5052932;28;8960;-74
2022/12/18 12:14:59;;;;;;;;;32.33;32.33;;;;;;;;5060506;28;8873;-72
2022/12/18 12:17:36;;;;;;;;;48.00;43.00;;;;;;;;5059497;28;8842;-70
2022/12/18 12:20:09;;;;;;;;;55.33;49.00;;;;;;;;5059752;28;8882;-72
2022/12/18 12:22:43;;;;;;;;;45.33;43.33;;;;;;;;5062770;28;8878;-74
2022/12/18 12:25:33;;;;;;;;;53.00;44.67;;;;;;;;5077820;28;8908;-71
2022/12/18 12:28:14;;;;;;;;;45.00;39.00;;;;;;;;5066957;28;8838;-71
2022/12/18 12:30:51;;;;;;;;;53.67;45.67;;;;;;;;5053022;28;8846;-70
2022/12/18 12:33:30;;;;;;;;;53.00;43.00;;;;;;;;5042982;28;8880;-72
2022/12/18 12:36:07;;;;;;;;;46.00;43.33;;;;;;;;5058988;28;8904;-71
2022/12/18 12:38:40;;;;;;;;;47.67;37.00;;;;;;;;5060438;28;8874;-72
2022/12/18 12:43:12;;;;;;;;;41.67;39.33;;;;;;;;5064432;28;8840;-71
2022/12/18 12:44:01;;;;;;;;;54.67;45.33;;;;;;;;5061035;28;8967;-71
2022/12/18 12:46:28;;;;;;;;;50.00;35.33;;;;;;;;5062388;28;8831;-72
2022/12/18 12:48:58;;;;;;;;;50.33;40.33;;;;;;;;5047665;28;8838;-76
2022/12/18 12:51:28;;;;;;;;;70.33;54.00;;;;;;;;5039973;28;8877;-74
2022/12/18 12:53:57;;;;;;;;;52.67;46.00;;;;;;;;5059421;28;8872;-74
2022/12/18 12:56:40;;;;;;;;;44.67;40.00;;;;;;;;5043345;28;8919;-73
2022/12/18 12:59:14;;;;;;;;;51.67;43.33;;;;;;;;5063243;28;8830;-76
2022/12/18 13:01:50;;;;;;;;;46.67;43.67;;;;;;;;5058675;28;8846;-74
2022/12/18 13:04:25;;;;;;;;;34.67;34.67;;;;;;;;5051341;28;8834;-72
2022/12/18 13:06:58;;;;;;;;;45.33;42.00;;;;;;;;5063896;28;8859;-77
2022/12/18 13:09:26;;;;;;;;;43.33;42.67;;;;;;;;5067821;28;8882;-75
2022/12/18 13:14:41;;;;;;;;;32.00;32.00;;;;;;;;5056299;28;8816;-76
2022/12/18 13:17:29;;;;;;;;;50.33;41.33;;;;;;;;5059817;28;9596;-75
2022/12/18 13:20:16;;;;;;;;;48.67;43.00;;;;;;;;5064717;28;8844;-73
2022/12/18 13:22:46;;;;;;;;;50.33;42.33;;;;;;;;5066925;28;8955;-74
2022/12/18 13:25:33;;;;;;;;;36.67;30.33;;;;;;;;5064492;28;8860;-76
2022/12/18 13:28:09;;;;;;;;;37.33;35.33;;;;;;;;5065046;28;8830;-71
2022/12/18 13:30:50;;;;;;;;;58.33;48.67;;;;;;;;5067357;28;9578;-73
2022/12/18 13:33:51;;;;;;;;;43.00;42.00;;;;;;;;5063877;28;8832;-75
2022/12/18 13:36:30;;;;;;;;;52.67;43.67;;;;;;;;4996159;28;8847;-71
2022/12/18 13:39:34;;;;;;;;;53.67;43.33;;;;;;;;5001573;28;8865;-72
2022/12/18 13:46:00;;;;;;;;;48.00;42.33;;;;;;;;5414712;22;9535;-72
2022/12/18 13:48:32;;;;;;;;;42.33;39.33;;;;;;;;5038906;28;8866;-72
2022/12/18 13:51:03;;;;;;;;;49.67;39.00;;;;;;;;5020840;28;8913;-72
2022/12/18 13:53:35;;;;;;;;;46.67;39.67;;;;;;;;5036737;28;8877;-72
2022/12/18 13:56:03;;;;;;;;;42.33;41.67;;;;;;;;5057261;28;8867;-72
2022/12/18 13:58:31;;;;;;;;;43.00;38.67;;;;;;;;5038226;28;8851;-72
2022/12/18 14:00:59;;;;;;;;;42.67;39.33;;;;;;;;5042352;28;8859;-72
2022/12/18 14:03:30;;;;;;;;;42.00;38.67;;;;;;;;5038935;28;8858;-72
2022/12/18 14:06:04;;;;;;;;;39.33;35.67;;;;;;;;5041538;28;8931;-75
2022/12/18 14:08:38;;;;;;;;;47.67;42.00;;;;;;;;5039195;28;8975;-73
2022/12/18 14:11:06;;;;;;;;;37.33;37.33;;;;;;;;5039149;28;8881;-74
2022/12/18 14:13:36;;;;;;;;;43.67;36.00;;;;;;;;5041458;28;8862;-73
2022/12/18 14:16:07;;;;;;;;;43.00;37.00;;;;;;;;5035767;28;8843;-72
2022/12/18 14:18:43;;;;;;;;;42.33;35.67;;;;;;;;5037405;28;8863;-73
2022/12/18 14:21:21;;;;;;;;;46.00;41.67;;;;;;;;5039705;28;8856;-73
2022/12/18 14:23:48;;;;;;;;;42.33;38.67;;;;;;;;5040567;28;8850;-73
2022/12/18 14:26:25;;;;;;;;;39.67;35.33;;;;;;;;5041702;28;8889;-73
2022/12/18 14:28:53;;;;;;;;;46.67;38.67;;;;;;;;5037651;28;8869;-72
2022/12/18 14:31:22;;;;;;;;;42.33;39.33;;;;;;;;5038238;28;8842;-72
2022/12/18 14:33:51;;;;;;;;;47.33;39.33;;;;;;;;5039313;28;8961;-72
2022/12/18 14:36:21;;;;;;;;;49.00;44.00;;;;;;;;5040141;28;9656;-74
2022/12/18 14:38:51;;;;;;;;;41.33;37.33;;;;;;;;5035444;28;8847;-74
2022/12/18 14:41:20;;;;;;;;;56.67;44.33;;;;;;;;5034521;28;8867;-75
2022/12/18 14:43:50;;;;;;;;;48.67;41.00;;;;;;;;5039282;28;8901;-76
2022/12/18 14:46:30;;;;;;;;;44.67;38.00;;;;;;;;5039869;28;8921;-74
2022/12/18 14:48:59;;;;;;;;;66.00;47.67;;;;;;;;5037297;28;8978;-73
2022/12/18 14:51:27;;;;;;;;;56.00;48.00;;;;;;;;5039242;28;8935;-73
2022/12/18 14:53:57;;;;;;;;;46.00;35.33;;;;;;;;5048658;28;8828;-73
2022/12/18 14:56:26;;;;;;;;;63.33;48.33;;;;;;;;5044682;28;8839;-73
2022/12/18 14:58:56;;;;;;;;;49.67;41.67;;;;;;;;5039334;28;9684;-74
2022/12/18 15:01:28;;;;;;;;;47.33;43.67;;;;;;;;5036087;28;9605;-73
2022/12/18 15:03:58;;;;;;;;;50.67;45.67;;;;;;;;5037817;28;8823;-73